Sunday, December 17, 2017, 12:43 PM MST
Back to Local

KSLC, Salt Lake City International Airport

Location: Salt Lake City, UT, United States Lat: 40.783
Local Time: 12:43 PM MST (19:43 GMT) Lon: -111.967
Time Zone: US/Mountain Elev: 4225 ft

Show me the last for .
Show Decoded

2017-12-17 11:54 METAR KSLC 171854Z 00000KT 10SM FEW020 SCT040 SCT200 01/M04 A3021 RMK AO2 SLP243
                 T00111039 =
2017-12-17 10:54 METAR KSLC 171754Z 00000KT 10SM FEW025 FEW040 M01/M03 A3022 RMK AO2 SLP249
                 T10061033 10000 21028 50006 =
2017-12-17 09:54 METAR KSLC 171654Z 01004KT 10SM FEW020 FEW042 M01/M05 A3023 RMK AO2 SLP252
                 T10111050 =
2017-12-17 08:54 METAR KSLC 171554Z 01004KT 10SM FEW014 FEW025 SCT042 M03/M04 A3021 RMK AO2
                 SLP249 T10281044 =
2017-12-17 07:54 METAR KSLC 171454Z 32005KT 10SM FEW024 BKN043 M02/M04 A3020 RMK AO2 SLP244
                 T10221044 51015 =
2017-12-17 06:54 METAR KSLC 171354Z 36006KT 10SM FEW020 BKN044 M02/M03 A3019 RMK AO2 SLP238
                 T10171033 =
2017-12-17 05:54 METAR KSLC 171254Z 28005KT 10SM FEW020 FEW035 BKN045 M01/M04 A3017 RMK AO2
                 SLP229 T10111039 =
2017-12-17 04:54 METAR KSLC 171154Z 00000KT 10SM FEW018 SCT035 BKN041 M01/M03 A3015 RMK AO2
                 SLP224 4/001 60000 70006 T10111033 10000 21011 51013 =
2017-12-17 03:54 METAR KSLC 171054Z 32004KT 10SM FEW018 SCT035 BKN041 M01/M03 A3015 RMK AO2
                 SLP220 T10061033 =
2017-12-17 02:54 METAR KSLC 170954Z 34003KT 10SM FEW018 SCT030 BKN042 M01/M03 A3014 RMK AO2
                 SLP215 T10061028 =
2017-12-17 01:54 METAR KSLC 170854Z 35004KT 10SM FEW018 SCT030 BKN036 M01/M03 A3011 RMK AO2
                 SLP207 60000 T10061033 53010 =
2017-12-17 00:54 METAR KSLC 170754Z 02004KT 10SM FEW020 BKN032 BKN043 M01/M03 A3009 RMK AO2
                 SLP202 T10061028 =
2017-12-17 00:01 METAR KSLC 170701Z 30005KT 10SM FEW018 BKN030 OVC043 M01/M03 A3008 RMK AO2
                 T10061028 =
2017-12-16 23:54 METAR KSLC 170654Z 30005KT 10SM FEW018 BKN029 OVC039 M01/M03 A3008 RMK AO2 SNE05
                 SLP196 P0000 T10061033 400221011 =
2017-12-16 23:16 METAR KSLC 170616Z 30005KT 8SM FEW018 BKN029 OVC039 M01/M02 A3007 RMK AO2 SNE05
                 P0000 T10061022 =
2017-12-16 22:54 METAR KSLC 170554Z 30005KT 6SM -SN BR FEW018 SCT025 OVC040 M01/M02 A3008 RMK AO2
                 CIG 028 NW RNWY SLP196 P0001 60004 T10061017 10006 21011 51019 =
2017-12-16 22:16 METAR KSLC 170516Z 29008KT 3SM -SN BR OVC019 M01/M02 A3007 RMK AO2 P0001
                 T10111017 =
2017-12-16 22:01 METAR KSLC 170501Z 29009KT 2 1/2SM -SN BR FEW006 SCT012 OVC018 M01/M02 A3006 RMK
                 AO2 P0001 T10111017 =
2017-12-16 21:54 METAR KSLC 170454Z 29008KT 2 1/2SM -SN BR FEW009 BKN013 OVC026 M01/M02 A3006 RMK
                 AO2 SLP189 P0001 T10111017 =
2017-12-16 21:31 METAR KSLC 170431Z 31007KT 2 1/2SM -SN BR SCT006 BKN012 OVC026 M01/M01 A3005 RMK
                 AO2 P0001 T10061011 =
2017-12-16 21:18 METAR KSLC 170418Z 30008KT 2SM -SN BR BKN006 OVC024 M01/M02 A3004 RMK AO2 P0001
                 T10061017 =
2017-12-16 20:54 METAR KSLC 170354Z 31008KT 3SM -SN BR SCT006 BKN013 OVC033 M01/M02 A3004 RMK AO2
                 SLP181 P0000 T10061017 =
2017-12-16 20:51 METAR KSLC 170351Z 31008KT 2 1/2SM -SN BR SCT007 BKN013 OVC034 M01/M02 A3003 RMK
                 AO2 P0000 =
2017-12-16 20:45 METAR KSLC 170345Z 31008KT 3SM -SN BR BKN006 BKN013 OVC027 M01/M01 A3003 RMK AO2
                 P0000 T10061011 =
2017-12-16 20:35 METAR KSLC 170335Z 32007KT 3SM -SN BR SCT006 BKN014 OVC024 M01/M01 A3003 RMK AO2
                 P0000 T10061011 =
2017-12-16 19:54 METAR KSLC 170254Z 32007KT 5SM -SN BR SCT006 OVC020 00/M01 A3001 RMK AO2 SLP175
                 P0001 60002 T00001011 53012 =
2017-12-16 19:23 METAR KSLC 170223Z 33010KT 4SM -SN BR SCT006 BKN016 OVC044 00/M01 A3001 RMK AO2
                 P0000 T00001011 =
2017-12-16 18:54 METAR KSLC 170154Z 33008KT 5SM -SN BR BKN007 BKN026 OVC036 00/M01 A2999 RMK AO2
                 SLP168 P0001 T00001011 =
2017-12-16 17:54 METAR KSLC 170054Z 33008KT 9SM -SN FEW009 BKN020 OVC034 01/M01 A2998 RMK AO2
                 SNB2357E41B50 SLP162 P0000 T00061011 =
2017-12-16 17:49 METAR KSLC 170049Z AUTO 33010KT 10SM FEW010 BKN019 OVC035 01/M01 A2997 RMK AO2
                 SNB2357E41 SH VC S P0000 =
2017-12-16 16:54 METAR KSLC 162354Z 31011KT 9SM FEW025 OVC035 01/M02 A2996 RMK AO2 SLP153 SH VC
                 SE 60001 T00061017 10022 20006 53015 =
2017-12-16 15:54 METAR KSLC 162254Z 29008KT 10SM FEW025 OVC038 02/M01 A2993 RMK AO2 SLP143 SH VC
                 SE T00171006 =
2017-12-16 14:54 METAR KSLC 162154Z 31008KT 10SM SCT031 BKN043 OVC050 02/M01 A2992 RMK AO2 SLP139
                 T00171011 =
2017-12-16 13:54 METAR KSLC 162054Z 31009KT 7SM FEW015 BKN042 OVC055 01/M01 A2991 RMK AO2 SNE10
                 SLP134 P0000 60001 T00111011 50002 =
2017-12-16 13:01 METAR KSLC 162001Z 31013KT 6SM -SN BR SCT015 BKN038 OVC049 01/M01 A2991 RMK AO2
                 P0000 T00111006 =
2017-12-16 12:54 METAR KSLC 161954Z 31012KT 3SM -SN FEW007 BKN014 OVC049 01/M01 A2991 RMK AO2 SFC
                 VIS 5 SNE1856B40 SLP137 P0000 T00061011 =

Support USWX by starting your Amazon purchase here.